Alexander 3 — SW6137 — position and weather

sailwx.info

Track history (hours):
 
Tides and Currents Weather Stations Pressure Air Temp Water Temp Dewpoint Dewpoint Depression Visibility Wind Speed Wind Dir Waves Ship Positions

Alexander 3

Last reported at 2016-Aug-29 06:33 UTC. Time now 2016-Aug-29 07:16 UTC.
Position N 37°57' E 023°36'.

Length 38 m; draft 5.6 m.

Type: Tug. MMSI: 240733000.

Date/timePositionNaut miles runAvg speedWind from/ knotsBaromVisibWave heightAir tempDewpointWater temp
2016-Aug-29 06:33N 37°57' E 023°36'0 0.0
2016-Aug-29 05:33N 37°57' E 023°36'0 0.2
2016-Aug-29 04:34N 37°57' E 023°36'0 0.4
2016-Aug-29 03:33N 37°57' E 023°37'0 0.0
2016-Aug-29 02:33N 37°57' E 023°37'0 0.0
2016-Aug-29 01:34N 37°57' E 023°37'0 0.0
2016-Aug-29 00:33N 37°57' E 023°37'1 0.9
2016-Aug-28 23:34N 37°57' E 023°36'1 0.9
2016-Aug-28 22:33N 37°57' E 023°37'0 0.0
2016-Aug-28 21:33N 37°57' E 023°37'0 0.0
2016-Aug-28 20:34N 37°57' E 023°37'0 0.0
2016-Aug-28 19:33N 37°57' E 023°37'0 0.0
2016-Aug-28 18:33N 37°57' E 023°37'0 0.0
2016-Aug-28 17:33N 37°57' E 023°37'0 0.0
2016-Aug-28 16:34N 37°57' E 023°37'0 0.0
2016-Aug-28 15:34N 37°57' E 023°37'0 0.0
2016-Aug-28 14:34N 37°57' E 023°37'0 0.0
2016-Aug-28 13:34N 37°57' E 023°37'0 0.0
2016-Aug-28 12:33N 37°57' E 023°37'0 0.0
2016-Aug-28 11:34N 37°57' E 023°37'0 0.0
2016-Aug-28 10:33N 37°57' E 023°37'0 0.0
2016-Aug-28 09:33N 37°57' E 023°37'0 0.0
2016-Aug-28 08:34N 37°57' E 023°37'0 0.0
2016-Aug-28 07:33N 37°57' E 023°37'0 0.0
2016-Aug-28 06:33N 37°57' E 023°37'0 0.0
2016-Aug-28 05:33N 37°57' E 023°37'1 1.1
2016-Aug-28 04:33N 37°57' E 023°35'1 1.1
2016-Aug-28 03:33N 37°57' E 023°37'0 0.0
2016-Aug-28 02:33N 37°57' E 023°37'0 0.0
2016-Aug-28 01:34N 37°57' E 023°37'1 1.1
2016-Aug-28 00:33N 37°57' E 023°35'2 1.5
2016-Aug-27 23:33N 37°57' E 023°34'2 2.4
2016-Aug-27 22:34N 37°57' E 023°37'0 0.0
2016-Aug-27 21:33N 37°57' E 023°37'0 0.0
2016-Aug-27 20:33N 37°57' E 023°37'0 0.0
2016-Aug-27 19:33N 37°57' E 023°37'0 0.0
2016-Aug-27 18:33N 37°57' E 023°37'1 0.7
2016-Aug-27 17:34N 37°57' E 023°36'1 0.7
2016-Aug-27 16:33N 37°57' E 023°37'0 0.0
2016-Aug-27 15:34N 37°57' E 023°37'0 0.0
2016-Aug-27 14:33N 37°57' E 023°37'0 0.0
2016-Aug-27 13:34N 37°57' E 023°37'0 0.0
2016-Aug-27 12:34N 37°57' E 023°37'1 0.5
2016-Aug-27 11:33N 37°57' E 023°36'1 1.0
2016-Aug-27 10:34N 37°57' E 023°35'2 1.5
2016-Aug-27 09:33N 37°57' E 023°37'0 0.0
2016-Aug-27 08:34N 37°57' E 023°37'0 0.2
2016-Aug-27 07:33N 37°57' E 023°36'2 2.1
2016-Aug-27 06:33N 37°56' E 023°35'2 0.8
2016-Aug-27 04:34N 37°56' E 023°37'0 0.0
2016-Aug-27 03:33N 37°56' E 023°37'0 0.0
2016-Aug-26 10:34N 37°56' E 023°37'0 0.0
2016-Aug-26 09:33N 37°56' E 023°37'1 0.7
2016-Aug-26 08:34N 37°56' E 023°38'1 0.7
2016-Aug-26 07:34N 37°56' E 023°37'0 0.0
2016-Aug-26 06:34N 37°56' E 023°37'0 0.0
2016-Aug-26 04:33N 37°56' E 023°37'1 0.6
2016-Aug-26 03:34N 37°56' E 023°37'1 0.6
2016-Aug-26 02:34N 37°56' E 023°37'0 0.0
2016-Aug-25 14:19N 37°56' E 023°37'0 0.6
2016-Aug-25 13:33N 37°56' E 023°38'0 0.4
2016-Aug-25 12:34N 37°56' E 023°38'1 0.8
2016-Aug-25 11:33N 37°56' E 023°37'0 0.0
2016-Aug-25 10:34N 37°56' E 023°37'0 0.0
2016-Aug-25 09:33N 37°56' E 023°37'0 0.0
2016-Aug-25 08:33N 37°56' E 023°37'0 0.0
2016-Aug-25 07:33N 37°56' E 023°37'0 0.0
2016-Aug-25 06:34N 37°56' E 023°37'0 0.0
2016-Aug-25 04:33N 37°56' E 023°37'0 0.0
2016-Aug-25 03:34N 37°56' E 023°37'0 0.0
2016-Aug-25 02:33N 37°56' E 023°37'0 0.3
2016-Aug-25 01:33N 37°56' E 023°37'1 1.4
2016-Aug-25 00:33N 37°57' E 023°36'1 1.3
2016-Aug-24 23:34N 37°56' E 023°37'2 2.0
2016-Aug-24 22:33N 37°57' E 023°35'1 0.7
2016-Aug-24 21:34N 37°57' E 023°35'2 2.0
2016-Aug-24 20:34N 37°56' E 023°37'0 0.0
2016-Aug-24 19:33N 37°56' E 023°37'0 0.0
2016-Aug-24 18:33N 37°56' E 023°37'0 0.0
2016-Aug-24 17:33N 37°56' E 023°37'0 0.0
2016-Aug-24 16:33N 37°56' E 023°37'0 0.0
2016-Aug-24 15:34N 37°56' E 023°37'0 0.0
2016-Aug-24 14:33N 37°56' E 023°37'0 0.0
2016-Aug-24 13:33N 37°56' E 023°37'0 0.0
2016-Aug-24 12:33N 37°56' E 023°37'0 0.0
2016-Aug-24 11:34N 37°56' E 023°37'0 0.0
2016-Aug-24 10:33N 37°56' E 023°37'0 0.0
2016-Aug-24 09:33N 37°56' E 023°37'0 0.0
2016-Aug-24 08:33N 37°56' E 023°37'0 0.0
2016-Aug-24 07:33N 37°56' E 023°37'0 0.0
2016-Aug-24 06:33N 37°56' E 023°37'0 0.0
2016-Aug-24 04:33N 37°56' E 023°37'1 0.6
2016-Aug-24 03:33N 37°56' E 023°38'1 0.6
2016-Aug-24 02:33N 37°56' E 023°37'0 0.0
2016-Aug-23 11:32N 37°56' E 023°37'9 9.4
2016-Aug-23 10:33N 37°52' E 023°26'7 6.7
2016-Aug-23 09:33N 37°58' E 023°23'1 1.1
2016-Aug-23 08:33N 37°58' E 023°24'0 0.0
2016-Aug-23 07:33N 37°58' E 023°24'0 0.0
2016-Aug-23 06:33N 37°58' E 023°24'0 0.0
2016-Aug-23 05:34N 37°58' E 023°24'0 0.0
2016-Aug-23 04:33N 37°58' E 023°24'0 0.0
2016-Aug-23 03:33N 37°58' E 023°24'0 0.0
2016-Aug-23 02:33N 37°58' E 023°24'0 0.0
2016-Aug-23 01:34N 37°58' E 023°24'0 0.0
2016-Aug-23 00:33N 37°58' E 023°24'0 0.0
2016-Aug-22 23:33N 37°58' E 023°24'0 0.0
2016-Aug-22 22:33N 37°58' E 023°24'0 0.0
2016-Aug-22 21:33N 37°58' E 023°24'0 0.0
2016-Aug-22 20:33N 37°58' E 023°24'0 0.0
2016-Aug-22 19:33N 37°58' E 023°24'0 0.0
2016-Aug-22 18:33N 37°58' E 023°24'0 0.0
2016-Aug-22 17:33N 37°58' E 023°24'0 0.0
2016-Aug-22 16:33N 37°58' E 023°24'0 0.0
2016-Aug-22 15:33N 37°58' E 023°24'0 0.0
2016-Aug-22 14:33N 37°58' E 023°24'0 0.0
2016-Aug-22 13:34N 37°58' E 023°24'0 0.0
2016-Aug-22 12:33N 37°58' E 023°24'0 0.0
2016-Aug-22 11:33N 37°58' E 023°24'0 0.0
2016-Aug-22 10:34N 37°58' E 023°24'0 0.0
2016-Aug-22 09:33N 37°58' E 023°24'1 1.1
2016-Aug-22 08:33N 37°58' E 023°23'1 0.9
2016-Aug-22 07:34N 37°57' E 023°23'1 1.4
2016-Aug-22 06:33N 37°58' E 023°24'1 0.8
2016-Aug-22 05:33N 37°59' E 023°25'6 6.0
2016-Aug-22 04:33N 37°58' E 023°33'3 2.7
2016-Aug-22 03:34N 37°57' E 023°36'1 1.5
2016-Aug-22 02:33N 37°56' E 023°37'0 0.0
2016-Aug-21 11:17N 37°56' E 023°37'1 2.0
2016-Aug-21 10:33N 37°57' E 023°36'0 0.0
2016-Aug-21 09:33N 37°57' E 023°36'0 0.0
2016-Aug-21 08:33N 37°57' E 023°36'0 0.0
2016-Aug-21 07:33N 37°57' E 023°36'0 0.0
2016-Aug-21 06:33N 37°57' E 023°36'0 0.0
2016-Aug-21 05:33N 37°57' E 023°36'2 1.9
2016-Aug-21 04:33N 37°56' E 023°35'2 2.0
2016-Aug-21 03:33N 37°56' E 023°37'0 0.0
2016-Aug-19 20:20N 37°56' E 023°37'2 2.5
2016-Aug-19 19:33N 37°57' E 023°35'1 1.0
2016-Aug-19 18:33N 37°57' E 023°36'0 0.0
2016-Aug-19 17:33N 37°57' E 023°36'0 0.0
2016-Aug-19 16:34N 37°57' E 023°36'0 0.0
2016-Aug-19 15:33N 37°57' E 023°36'0 0.0
2016-Aug-19 14:34N 37°57' E 023°36'0 0.0
2016-Aug-19 13:33N 37°57' E 023°36'0 0.0
2016-Aug-19 12:33N 37°57' E 023°36'0 0.0
2016-Aug-19 11:33N 37°57' E 023°36'0 0.3
2016-Aug-19 10:33N 37°58' E 023°36'0 0.4
2016-Aug-19 09:33N 37°57' E 023°36'0 0.3
2016-Aug-19 08:33N 37°57' E 023°36'0 0.4
2016-Aug-19 07:34N 37°57' E 023°36'  
Track history (hours):
 
Tides and Currents Weather Stations Pressure Air Temp Water Temp Dewpoint Dewpoint Depression Visibility Wind Speed Wind Dir Waves Ship Positions

Alexander 3

Last reported at 2016-Aug-29 06:33 UTC. Time now 2016-Aug-29 07:16 UTC.
Position N 37°57' E 023°36'.

Length 38 m; draft 5.6 m.

Type: Tug. MMSI: 240733000.

Date/timePositionNaut miles runAvg speedWind from/ knotsBaromVisibWave heightAir tempDewpointWater temp
2016-Aug-29 06:33N 37°57' E 023°36'0 0.0
2016-Aug-29 05:33N 37°57' E 023°36'0 0.2
2016-Aug-29 04:34N 37°57' E 023°36'0 0.4
2016-Aug-29 03:33N 37°57' E 023°37'0 0.0
2016-Aug-29 02:33N 37°57' E 023°37'0 0.0
2016-Aug-29 01:34N 37°57' E 023°37'0 0.0
2016-Aug-29 00:33N 37°57' E 023°37'1 0.9
2016-Aug-28 23:34N 37°57' E 023°36'1 0.9
2016-Aug-28 22:33N 37°57' E 023°37'0 0.0
2016-Aug-28 21:33N 37°57' E 023°37'0 0.0
2016-Aug-28 20:34N 37°57' E 023°37'0 0.0
2016-Aug-28 19:33N 37°57' E 023°37'0 0.0
2016-Aug-28 18:33N 37°57' E 023°37'0 0.0
2016-Aug-28 17:33N 37°57' E 023°37'0 0.0
2016-Aug-28 16:34N 37°57' E 023°37'0 0.0
2016-Aug-28 15:34N 37°57' E 023°37'0 0.0
2016-Aug-28 14:34N 37°57' E 023°37'0 0.0
2016-Aug-28 13:34N 37°57' E 023°37'0 0.0
2016-Aug-28 12:33N 37°57' E 023°37'0 0.0
2016-Aug-28 11:34N 37°57' E 023°37'0 0.0
2016-Aug-28 10:33N 37°57' E 023°37'0 0.0
2016-Aug-28 09:33N 37°57' E 023°37'0 0.0
2016-Aug-28 08:34N 37°57' E 023°37'0 0.0
2016-Aug-28 07:33N 37°57' E 023°37'0 0.0
2016-Aug-28 06:33N 37°57' E 023°37'0 0.0
2016-Aug-28 05:33N 37°57' E 023°37'1 1.1
2016-Aug-28 04:33N 37°57' E 023°35'1 1.1
2016-Aug-28 03:33N 37°57' E 023°37'0 0.0
2016-Aug-28 02:33N 37°57' E 023°37'0 0.0
2016-Aug-28 01:34N 37°57' E 023°37'1 1.1
2016-Aug-28 00:33N 37°57' E 023°35'2 1.5
2016-Aug-27 23:33N 37°57' E 023°34'2 2.4
2016-Aug-27 22:34N 37°57' E 023°37'0 0.0
2016-Aug-27 21:33N 37°57' E 023°37'0 0.0
2016-Aug-27 20:33N 37°57' E 023°37'0 0.0
2016-Aug-27 19:33N 37°57' E 023°37'0 0.0
2016-Aug-27 18:33N 37°57' E 023°37'1 0.7
2016-Aug-27 17:34N 37°57' E 023°36'1 0.7
2016-Aug-27 16:33N 37°57' E 023°37'0 0.0
2016-Aug-27 15:34N 37°57' E 023°37'0 0.0
2016-Aug-27 14:33N 37°57' E 023°37'0 0.0
2016-Aug-27 13:34N 37°57' E 023°37'0 0.0
2016-Aug-27 12:34N 37°57' E 023°37'1 0.5
2016-Aug-27 11:33N 37°57' E 023°36'1 1.0
2016-Aug-27 10:34N 37°57' E 023°35'2 1.5
2016-Aug-27 09:33N 37°57' E 023°37'0 0.0
2016-Aug-27 08:34N 37°57' E 023°37'0 0.2
2016-Aug-27 07:33N 37°57' E 023°36'2 2.1
2016-Aug-27 06:33N 37°56' E 023°35'2 0.8
2016-Aug-27 04:34N 37°56' E 023°37'0 0.0
2016-Aug-27 03:33N 37°56' E 023°37'0 0.0
2016-Aug-26 10:34N 37°56' E 023°37'0 0.0
2016-Aug-26 09:33N 37°56' E 023°37'1 0.7
2016-Aug-26 08:34N 37°56' E 023°38'1 0.7
2016-Aug-26 07:34N 37°56' E 023°37'0 0.0
2016-Aug-26 06:34N 37°56' E 023°37'0 0.0
2016-Aug-26 04:33N 37°56' E 023°37'1 0.6
2016-Aug-26 03:34N 37°56' E 023°37'1 0.6
2016-Aug-26 02:34N 37°56' E 023°37'0 0.0
2016-Aug-25 14:19N 37°56' E 023°37'0 0.6
2016-Aug-25 13:33N 37°56' E 023°38'0 0.4
2016-Aug-25 12:34N 37°56' E 023°38'1 0.8
2016-Aug-25 11:33N 37°56' E 023°37'0 0.0
2016-Aug-25 10:34N 37°56' E 023°37'0 0.0
2016-Aug-25 09:33N 37°56' E 023°37'0 0.0
2016-Aug-25 08:33N 37°56' E 023°37'0 0.0
2016-Aug-25 07:33N 37°56' E 023°37'0 0.0
2016-Aug-25 06:34N 37°56' E 023°37'0 0.0
2016-Aug-25 04:33N 37°56' E 023°37'0 0.0
2016-Aug-25 03:34N 37°56' E 023°37'0 0.0
2016-Aug-25 02:33N 37°56' E 023°37'0 0.3
2016-Aug-25 01:33N 37°56' E 023°37'1 1.4
2016-Aug-25 00:33N 37°57' E 023°36'1 1.3
2016-Aug-24 23:34N 37°56' E 023°37'2 2.0
2016-Aug-24 22:33N 37°57' E 023°35'1 0.7
2016-Aug-24 21:34N 37°57' E 023°35'2 2.0
2016-Aug-24 20:34N 37°56' E 023°37'0 0.0
2016-Aug-24 19:33N 37°56' E 023°37'0 0.0
2016-Aug-24 18:33N 37°56' E 023°37'0 0.0
2016-Aug-24 17:33N 37°56' E 023°37'0 0.0
2016-Aug-24 16:33N 37°56' E 023°37'0 0.0
2016-Aug-24 15:34N 37°56' E 023°37'0 0.0
2016-Aug-24 14:33N 37°56' E 023°37'0 0.0
2016-Aug-24 13:33N 37°56' E 023°37'0 0.0
2016-Aug-24 12:33N 37°56' E 023°37'0 0.0
2016-Aug-24 11:34N 37°56' E 023°37'0 0.0
2016-Aug-24 10:33N 37°56' E 023°37'0 0.0
2016-Aug-24 09:33N 37°56' E 023°37'0 0.0
2016-Aug-24 08:33N 37°56' E 023°37'0 0.0
2016-Aug-24 07:33N 37°56' E 023°37'0 0.0
2016-Aug-24 06:33N 37°56' E 023°37'0 0.0
2016-Aug-24 04:33N 37°56' E 023°37'1 0.6
2016-Aug-24 03:33N 37°56' E 023°38'1 0.6
2016-Aug-24 02:33N 37°56' E 023°37'0 0.0
2016-Aug-23 11:32N 37°56' E 023°37'9 9.4
2016-Aug-23 10:33N 37°52' E 023°26'7 6.7
2016-Aug-23 09:33N 37°58' E 023°23'1 1.1
2016-Aug-23 08:33N 37°58' E 023°24'0 0.0
2016-Aug-23 07:33N 37°58' E 023°24'0 0.0
2016-Aug-23 06:33N 37°58' E 023°24'0 0.0
2016-Aug-23 05:34N 37°58' E 023°24'0 0.0
2016-Aug-23 04:33N 37°58' E 023°24'0 0.0
2016-Aug-23 03:33N 37°58' E 023°24'0 0.0
2016-Aug-23 02:33N 37°58' E 023°24'0 0.0
2016-Aug-23 01:34N 37°58' E 023°24'0 0.0
2016-Aug-23 00:33N 37°58' E 023°24'0 0.0
2016-Aug-22 23:33N 37°58' E 023°24'0 0.0
2016-Aug-22 22:33N 37°58' E 023°24'0 0.0
2016-Aug-22 21:33N 37°58' E 023°24'0 0.0
2016-Aug-22 20:33N 37°58' E 023°24'0 0.0
2016-Aug-22 19:33N 37°58' E 023°24'0 0.0
2016-Aug-22 18:33N 37°58' E 023°24'0 0.0
2016-Aug-22 17:33N 37°58' E 023°24'0 0.0
2016-Aug-22 16:33N 37°58' E 023°24'0 0.0
2016-Aug-22 15:33N 37°58' E 023°24'0 0.0
2016-Aug-22 14:33N 37°58' E 023°24'0 0.0
2016-Aug-22 13:34N 37°58' E 023°24'0 0.0
2016-Aug-22 12:33N 37°58' E 023°24'0 0.0
2016-Aug-22 11:33N 37°58' E 023°24'0 0.0
2016-Aug-22 10:34N 37°58' E 023°24'0 0.0
2016-Aug-22 09:33N 37°58' E 023°24'1 1.1
2016-Aug-22 08:33N 37°58' E 023°23'1 0.9
2016-Aug-22 07:34N 37°57' E 023°23'1 1.4
2016-Aug-22 06:33N 37°58' E 023°24'1 0.8
2016-Aug-22 05:33N 37°59' E 023°25'6 6.0
2016-Aug-22 04:33N 37°58' E 023°33'3 2.7
2016-Aug-22 03:34N 37°57' E 023°36'1 1.5
2016-Aug-22 02:33N 37°56' E 023°37'0 0.0
2016-Aug-21 11:17N 37°56' E 023°37'1 2.0
2016-Aug-21 10:33N 37°57' E 023°36'0 0.0
2016-Aug-21 09:33N 37°57' E 023°36'0 0.0
2016-Aug-21 08:33N 37°57' E 023°36'0 0.0
2016-Aug-21 07:33N 37°57' E 023°36'0 0.0
2016-Aug-21 06:33N 37°57' E 023°36'0 0.0
2016-Aug-21 05:33N 37°57' E 023°36'2 1.9
2016-Aug-21 04:33N 37°56' E 023°35'2 2.0
2016-Aug-21 03:33N 37°56' E 023°37'0 0.0
2016-Aug-19 20:20N 37°56' E 023°37'2 2.5
2016-Aug-19 19:33N 37°57' E 023°35'1 1.0
2016-Aug-19 18:33N 37°57' E 023°36'0 0.0
2016-Aug-19 17:33N 37°57' E 023°36'0 0.0
2016-Aug-19 16:34N 37°57' E 023°36'0 0.0
2016-Aug-19 15:33N 37°57' E 023°36'0 0.0
2016-Aug-19 14:34N 37°57' E 023°36'0 0.0
2016-Aug-19 13:33N 37°57' E 023°36'0 0.0
2016-Aug-19 12:33N 37°57' E 023°36'0 0.0
2016-Aug-19 11:33N 37°57' E 023°36'0 0.3
2016-Aug-19 10:33N 37°58' E 023°36'0 0.4
2016-Aug-19 09:33N 37°57' E 023°36'0 0.3
2016-Aug-19 08:33N 37°57' E 023°36'0 0.4
2016-Aug-19 07:34N 37°57' E 023°36'  

Dump ship's entire track history